Record high temperature 35.7°C Record low temperature -3.9°C Record high gust 48.1 km/h Record high average 30.2 km/h Record daily rain 20.2 mm Record low windchill -5.3°C Record high barometer 1037.0 hPa Record low barometer 995.5 hPa
Daily high pressure 1020.4 hPa Daily low pressure 1019.0 hPa Daily low windchill 10.2°C Daily high heat index 17.3°C Daily high gust speed 10.0 kmh OSO Daily high average speed 5.7 kmh SO
Wetterdaten
LETZTE AKTUALISIERUNG UM: 09:45 DATUM: 05 August 2020, time of next update: 10:00
Aktuelles WetterClear Aktuelle Temperatur 17.3°C (63.2°F) (Hitze-Index 17.3°C ), Apparent temp 17.8°C , Apparent temp solar 21.5°C
Höchsttemperatur (seit Mitternacht)17.3°C um: 09:44 Tiefsttemperatur (seit Mitternacht)10.2°C um: 05:36
Windgeschwindigkeit (10 Minuten )1.9 kmh (1.0 kts) Windrichtung (Dir) (10 Minuten )SSW (202°)
Hitze-Index 17.3°C Windspitzen (letzte Std)6.6 kmh (3.6 kts) um: 09:07
Windspitzen (seit Mitternacht)10.0 kmh (5.4 kts) um: 01:08 Höchstes Windmittel / Minute (seit Mitternacht)5.7 kmh (3.1 kts) um: 07:30
Regenmenge (letzte Std)0.0 mm Regenmenge (seit Mitternacht)0.2 mm (0.01 in.)at 02:03
Regenmenge diesen Monat 12.0 mm (0.47 in.) Regenmenge seit Jahresbeginn 257.4 mm (10.13 in.)
Höchste Regenmenge pro Minute (letzte Std)0.0 mm/min Höchste Regenmenge pro Stunde (letzte 6 Std)0.0 mm/stunde
Regenmenge Gestern 1.4 mm Taupunkt 11.4°C (Wet Bulb :14.1°C )
Luftfeuchtigkeit 68 %, Humidex 19.3°C Aktueller Luftdruck (auf Meereshöhe bezogen)1019.7 hPa
Luftdrucktendenz -0.3 hPa (letzte Std) Trend (letzte 1 Std)gleichbleibend
Luftdrucktendenz (letzte 12 Std)+1.5 hPa Luftdrucktendenz (letzte 6 Std)+0.4 hPa
Maximum Soil temperature (seit Mitternacht) 20.6°C Minimum Soil temperature(seit Mitternacht)18.9°C
Current Soil temperature 19°C
Current Solar 520 W/m²
Maximum solar (seit Mitternacht) 520 W/m² Minimum solar(seit Mitternacht)0 W/m²
Current 01:58 hours of sunshine today, current sky: bewölkt
Sunshine hours for the year: 937:44 hrs Sunshine hours for the month: 29:10 hrs
Current evapotranspiration rate 1.1 mm per day. Yesterday's reading 2.0


Latest Web Cam Image


Weather report/warning/Metars

Stuttgart-Echterdingen, Germany (EDDS) 48-41N 009-13E 391M
Aug 05, 2020 - 03:20 AM EDT / 2020.08.05 0720 UTC
Wind: Variable at 1 MPH (1 KT):0
Visibility: greater than 7 mile(s):0
Temperature: 64 F (18 C)
Dew Point: 53 F (12 C)
Relative Humidity: 67%
Pressure (altimeter): 30.12 in. Hg (1020 hPa)
ob: EDDS 050720Z VRB01KT CAVOK 18/12 Q1020 NOSIG
cycle: 7
Augsburg, Germany (EDMA) 48-26N 010-56E 463M
Aug 05, 2020 - 03:20 AM EDT / 2020.08.05 0720 UTC
Wind: from the SE (140 degrees) at 6 MPH (5 KT) (direction variable):0
Visibility: greater than 7 mile(s):0
Temperature: 60 F (16 C)
Dew Point: 53 F (12 C)
Relative Humidity: 77%
Pressure (altimeter): 30.15 in. Hg (1021 hPa)
ob: EDMA 050720Z 14005KT 070V210 9999 NSC 16/12 Q1021
cycle: 7
Nuernberg, Germany (EDDN) 49-30N 011-03E 318M
Aug 05, 2020 - 03:20 AM EDT / 2020.08.05 0720 UTC
Wind: Variable at 2 MPH (2 KT):0
Visibility: greater than 7 mile(s):0
Temperature: 62 F (17 C)
Dew Point: 53 F (12 C)
Relative Humidity: 72%
Pressure (altimeter): 30.12 in. Hg (1020 hPa)
ob: EDDN 050720Z VRB02KT CAVOK 17/12 Q1020 NOSIG
cycle: 7
Berlin-Tegel, Germany (EDDT) 52-34N 013-19E 37M
Aug 05, 2020 - 03:20 AM EDT / 2020.08.05 0720 UTC
Wind: from the SSW (200 degrees) at 8 MPH (7 KT) (direction variable):0
Visibility: greater than 7 mile(s):0
Temperature: 71 F (22 C)
Dew Point: 50 F (10 C)
Relative Humidity: 46%
Pressure (altimeter): 30.09 in. Hg (1019 hPa)
ob: EDDT 050720Z 20007KT 140V250 CAVOK 22/10 Q1019 NOSIG
cycle: 7
Friedrichshafen, Germany (EDNY) 47-40N 009-31E 424M
Aug 05, 2020 - 03:20 AM EDT / 2020.08.05 0720 UTC
Wind: from the NE (050 degrees) at 6 MPH (5 KT) (direction variable):0
Visibility: greater than 7 mile(s):0
Temperature: 59 F (15 C)
Dew Point: 51 F (11 C)
Relative Humidity: 76%
Pressure (altimeter): 30.12 in. Hg (1020 hPa)
ob: EDNY 050720Z 05005KT 360V070 CAVOK 15/11 Q1020
cycle: 7
Hamburg-Finkenwerder, Germany (EDHI) 53-32N 009-50E 13M
Aug 05, 2020 - 03:20 AM EDT / 2020.08.05 0720 UTC
Wind: from the SSW (200 degrees) at 13 MPH (11 KT):0
Visibility: greater than 7 mile(s):0
Temperature: 68 F (20 C)
Dew Point: 48 F (9 C)
Relative Humidity: 49%
Pressure (altimeter): 30.00 in. Hg (1016 hPa)
ob: EDHI 050720Z 20011KT CAVOK 20/09 Q1016
cycle: 7
Amsterdam Airport Schiphol, Netherlands (EHAM) 52-18N 004-46E -2M
Aug 05, 2020 - 03:25 AM EDT / 2020.08.05 0725 UTC
Wind: from the SSW (200 degrees) at 13 MPH (11 KT) (direction variable):0
Visibility: greater than 7 mile(s):0
Temperature: 66 F (19 C)
Dew Point: 53 F (12 C)
Relative Humidity: 63%
Pressure (altimeter): 29.97 in. Hg (1015 hPa)
ob: EHAM 050725Z 20011KT 170V230 CAVOK 19/12 Q1015 NOSIG
cycle: 7
Stockholm/Skavsta, Sweden (ESKN) 58-47N 016-55E
Aug 05, 2020 - 03:20 AM EDT / 2020.08.05 0720 UTC
Wind: from the SW (220 degrees) at 8 MPH (7 KT):0
Visibility: greater than 7 mile(s):0
Temperature: 59 F (15 C)
Dew Point: 48 F (9 C)
Relative Humidity: 67%
Pressure (altimeter): 29.94 in. Hg (1014 hPa)
ob: ESKN 050720Z 22007KT CAVOK 15/09 Q1014
cycle: 7
Ramstein, Germany (ETAR) 49-26N 007-36E 237M
Aug 05, 2020 - 02:56 AM EDT / 2020.08.05 0656 UTC
Wind: Calm:0
Visibility: greater than 7 mile(s):0
Sky conditions: clear
Temperature: 61.0 F (16.1 C)
Dew Point: 53.8 F (12.1 C)
Relative Humidity: 77%
Pressure (altimeter): 30.1 in. Hg (1019 hPa)
ob: ETAR 050656Z AUTO 00000KT 9999 CLR 16/12 A3010 RMK AO2 SLP192 T01610121 FZRANO 
cycle: 7
Laupheim, Germany (ETHL) 48-13N 009-55E 550M
Aug 05, 2020 - 03:20 AM EDT / 2020.08.05 0720 UTC
Wind: from the N (360 degrees) at 2 MPH (2 KT):0
Visibility: 5 mile(s):0
Sky conditions: mostly clear
Temperature: 55 F (13 C)
Dew Point: 55 F (13 C)
Relative Humidity: 100%
Pressure (altimeter): 30.12 in. Hg (1020 hPa)
ob: ETHL 050720Z 36002KT 9000 FEW004 13/13 Q1020 BLU+BLU+
cycle: 7
Gran Canaria - Canary Islands, Spain (GCLP) 27-56N 015-23W 47M
Aug 05, 2020 - 03:30 AM EDT / 2020.08.05 0730 UTC
Wind: from the N (010 degrees) at 22 MPH (19 KT):0
Visibility: greater than 7 mile(s):0
Sky conditions: mostly clear
Temperature: 73 F (23 C)
Dew Point: 62 F (17 C)
Relative Humidity: 68%
Pressure (altimeter): 29.91 in. Hg (1013 hPa)
ob: GCLP 050730Z 01019KT 9999 FEW025 23/17 Q1013 NOSIG
cycle: 7
Hurguada, Egypt (HEGN) 27-09N 033-43E 14M
Aug 05, 2020 - 03:00 AM EDT / 2020.08.05 0700 UTC
Wind: from the NNW (330 degrees) at 14 MPH (12 KT):0
Visibility: greater than 7 mile(s):0
Temperature: 96 F (36 C)
Dew Point: 51 F (11 C)
Relative Humidity: 22%
Pressure (altimeter): 29.68 in. Hg (1005 hPa)
ob: HEGN 050700Z 33012KT CAVOK 36/11 Q1005 NOSIG
cycle: 7
Chicago / Meigs, IL, United States (KCGX) 41-52N 087-36W
Jun 18, 2008 - 01:45 PM EDT / 2008.06.18 1745 UTC
Wind: from the NW (310 degrees) at 6 MPH (5 KT):0
Visibility: 15 mile(s):0
Sky conditions: overcast
Temperature: 57 F (14 C)
Dew Point: 51 F (11 C)
Relative Humidity: 82%
Pressure (altimeter): 29.89 in. Hg (1012 hPa)
ob: KCGX 181745Z 31005KT 15SM BKN014 OVC030 14/11 A2989
cycle: 18
Paris-Aeroport Charles De Gaulle, France (LFPG) 49-01N 002-32E 109M
Aug 05, 2020 - 03:30 AM EDT / 2020.08.05 0730 UTC
Wind: from the S (170 degrees) at 7 MPH (6 KT) (direction variable):0
Visibility: greater than 7 mile(s):0
Temperature: 69 F (21 C)
Dew Point: 46 F (8 C)
Relative Humidity: 43%
Pressure (altimeter): 30.03 in. Hg (1017 hPa)
ob: LFPG 050730Z 17006KT 130V190 CAVOK 21/08 Q1017 NOSIG
cycle: 7
Hyeres, France (LFTH) 43-06N 006-09E 4M
Aug 05, 2020 - 03:30 AM EDT / 2020.08.05 0730 UTC
Wind: Variable at 3 MPH (3 KT):0
Visibility: greater than 7 mile(s):0
Temperature: 80 F (27 C)
Dew Point: 55 F (13 C)
Relative Humidity: 41%
Pressure (altimeter): 29.85 in. Hg (1011 hPa)
ob: LFTH 050730Z AUTO VRB03KT CAVOK 27/13 Q1011 NOSIG
cycle: 7



Die Wetterdaten werden alle 2 Minuten gespeichert, aber die Datenübertragung findet jede Minute statt. Die beste Ansicht wird in einer Auflösung von 800 x 600 und "True colour" erzielt. Linie zeigt die relative Luftfeuchtigkeit an.

Drücken Sie bitte auf "Aktualisieren" in Ihrem Browser, um die aktuellsten Daten zu erhalten.

Klicken Sie hier, um eine Übersicht der Durchschnitts- u. Extremwerte für den Monat zu erhalten
Created by "Weather Display" software version 10.37S at this start time/date 07:21:03 05.08.2020